Time;durP1;ratioP1;P1;durP2;ratioP2;P2;SDS_P1;SDS_P2;PMS_P1;PMS_P2;Temp;Humidity;BMP_temperature;BMP_pressure;BME280_temperature;BME280_humidity;BME280_pressure;Samples;Min_cycle;Max_cycle;Signal;HPM_P1;HPM_P2
2023/03/23 00:01:19;;;;;;;16.60;13.30;;;;;;;10.54;61.68;101707.58;106809;1269;26462;-50
2023/03/23 00:03:48;;;;;;;16.70;13.90;;;;;;;10.52;61.55;101703.95;107136;1269;25399;-50
2023/03/23 00:06:17;;;;;;;16.60;13.70;;;;;;;10.50;61.35;101701.87;107028;1268;25364;-49
2023/03/23 00:08:50;;;;;;;15.30;12.90;;;;;;;10.47;61.20;101698.60;106049;1268;1002887;-51
2023/03/23 00:11:19;;;;;;;17.10;13.90;;;;;;;10.44;61.23;101700.17;106981;1268;22648;-49
2023/03/23 00:13:52;;;;;;;16.70;12.60;;;;;;;10.40;61.25;101697.79;107084;1268;24246;-50
2023/03/23 00:16:28;;;;;;;14.60;12.40;;;;;;;10.36;61.19;101697.11;107087;1268;25395;-49
2023/03/23 00:19:04;;;;;;;15.10;12.30;;;;;;;10.34;61.20;101695.73;106789;1268;25352;-49
2023/03/23 00:21:35;;;;;;;17.80;12.40;;;;;;;10.32;61.24;101693.15;107022;1268;25357;-49
2023/03/23 00:24:15;;;;;;;16.10;12.90;;;;;;;10.30;61.33;101691.26;106857;1269;25335;-49
2023/03/23 00:26:44;;;;;;;17.50;12.90;;;;;;;10.29;61.37;101690.73;106231;1268;1003538;-50
2023/03/23 00:29:18;;;;;;;15.50;12.30;;;;;;;10.27;61.32;101686.23;106989;1268;25438;-50
2023/03/23 00:31:48;;;;;;;14.40;12.50;;;;;;;10.25;61.21;101680.52;107071;1267;22539;-50
2023/03/23 00:34:21;;;;;;;16.20;12.50;;;;;;;10.24;61.16;101676.20;106774;1269;25354;-51
2023/03/23 00:36:53;;;;;;;14.00;12.40;;;;;;;10.22;61.04;101674.81;106221;1269;1002940;-50
2023/03/23 00:39:20;;;;;;;14.20;11.50;;;;;;;10.20;60.96;101670.16;107094;1268;24283;-50
2023/03/23 00:41:48;;;;;;;13.60;11.80;;;;;;;10.18;60.82;101667.05;107065;1268;22517;-50
2023/03/23 00:44:19;;;;;;;14.70;12.00;;;;;;;10.16;60.80;101667.93;107095;1268;25503;-49
2023/03/23 00:46:48;;;;;;;12.90;10.90;;;;;;;10.13;60.76;101669.67;107051;1268;25458;-49
2023/03/23 00:49:17;;;;;;;14.60;11.70;;;;;;;10.12;60.68;101665.88;106884;1269;24223;-50
2023/03/23 00:51:45;;;;;;;14.00;11.30;;;;;;;10.10;60.68;101668.80;106307;1268;1003465;-50
2023/03/23 00:54:13;;;;;;;14.30;11.30;;;;;;;10.09;60.64;101671.05;107053;1253;25440;-50
2023/03/23 00:56:40;;;;;;;12.60;10.60;;;;;;;10.06;60.60;101665.16;107104;1268;25412;-51
2023/03/23 00:59:13;;;;;;;12.90;11.10;;;;;;;10.04;60.56;101662.91;106093;1268;1003270;-49
2023/03/23 01:01:41;;;;;;;13.90;10.60;;;;;;;10.03;60.49;101662.23;106818;1268;25360;-50
2023/03/23 01:04:11;;;;;;;12.40;10.30;;;;;;;10.02;60.59;101663.80;106893;1268;25411;-50
2023/03/23 01:06:42;;;;;;;11.80;10.30;;;;;;;9.98;60.70;101660.69;106089;1268;1003039;-50
2023/03/23 01:09:14;;;;;;;12.20;10.10;;;;;;;9.99;60.71;101660.17;107067;1268;22679;-50
2023/03/23 01:11:45;;;;;;;13.10;11.10;;;;;;;9.98;60.91;101661.05;106137;1268;1003804;-51
2023/03/23 01:14:13;;;;;;;11.30;9.70;;;;;;;9.98;60.72;101658.44;107038;1271;25354;-50
2023/03/23 01:16:42;;;;;;;11.60;10.30;;;;;;;9.96;60.76;101661.58;107123;1268;22526;-50
2023/03/23 01:19:10;;;;;;;12.20;9.90;;;;;;;9.91;60.86;101662.11;107072;1268;25338;-50
2023/03/23 01:21:38;;;;;;;10.30;9.20;;;;;;;9.92;60.89;101661.25;107008;1268;25383;-50
2023/03/23 01:24:06;;;;;;;11.30;10.10;;;;;;;9.91;61.12;101658.31;106808;1271;25356;-50
2023/03/23 01:26:33;;;;;;;12.80;11.50;;;;;;;9.89;61.18;101650.69;106787;1275;22588;-50
2023/03/23 01:29:01;;;;;;;11.20;10.00;;;;;;;9.88;61.24;101654.33;107130;1268;25538;-50
2023/03/23 01:31:29;;;;;;;12.60;9.40;;;;;;;9.87;61.26;101651.40;107113;1268;25368;-50
2023/03/23 01:33:56;;;;;;;14.20;11.10;;;;;;;9.87;61.30;101652.60;106917;1273;25364;-50
2023/03/23 01:36:32;;;;;;;11.50;9.80;;;;;;;9.87;61.30;101652.78;106793;1268;25309;-50
2023/03/23 01:39:05;;;;;;;12.60;10.10;;;;;;;9.85;61.32;101649.83;106800;1268;23797;-50
2023/03/23 01:41:34;;;;;;;11.70;9.60;;;;;;;9.84;61.27;101653.66;107031;1271;25367;-50
2023/03/23 01:44:17;;;;;;;11.50;10.10;;;;;;;9.82;61.15;101652.80;106884;1269;25405;-50
2023/03/23 01:46:54;;;;;;;10.70;9.50;;;;;;;9.81;61.16;101656.63;106824;1255;25331;-50
2023/03/23 01:49:32;;;;;;;11.70;9.40;;;;;;;9.81;61.08;101650.73;106289;1268;1003465;-50
2023/03/23 01:52:07;;;;;;;7.90;7.10;;;;;;;9.79;61.08;101651.77;107111;1268;24266;-50
2023/03/23 01:54:36;;;;;;;6.30;5.70;;;;;;;9.78;61.11;101646.76;106186;1269;1003579;-50
2023/03/23 01:57:26;;;;;;;4.10;3.70;;;;;;;9.76;61.07;101652.14;107060;1268;23478;-50
2023/03/23 01:59:57;;;;;;;3.30;3.00;;;;;;;9.73;61.30;101645.40;106259;1268;1003143;-50
2023/03/23 02:02:43;;;;;;;3.10;2.80;;;;;;;9.71;61.33;101649.39;106951;1268;25360;-50
2023/03/23 02:05:13;;;;;;;3.50;3.20;;;;;;;9.66;61.24;101650.27;107027;1268;25285;-50
2023/03/23 02:11:27;;;;;;;2.60;2.40;;;;;;;9.67;61.33;101652.34;102943;1299;1002961;-51
2023/03/23 02:14:03;;;;;;;3.90;3.50;;;;;;;9.62;61.37;101654.95;105925;1283;25416;-50
2023/03/23 02:16:46;;;;;;;5.30;4.80;;;;;;;9.60;61.11;101654.45;105885;1286;25341;-50
2023/03/23 02:19:32;;;;;;;6.00;5.00;;;;;;;9.57;61.07;101653.42;105975;1282;25325;-50
2023/03/23 02:22:29;;;;;;;5.10;4.50;;;;;;;9.54;61.09;101656.55;105948;1282;25342;-49
2023/03/23 02:25:03;;;;;;;4.60;4.10;;;;;;;9.50;61.11;101661.75;105848;1283;230438;-51
2023/03/23 02:27:40;;;;;;;3.40;3.10;;;;;;;9.47;61.22;101661.08;106084;1281;25358;-50
2023/03/23 02:30:11;;;;;;;3.60;3.30;;;;;;;9.45;61.11;101665.93;106252;1280;26513;-50
2023/03/23 02:33:30;;;;;;;3.10;2.80;;;;;;;9.42;61.16;101668.71;106191;1280;25356;-50
2023/03/23 02:36:01;;;;;;;4.10;3.70;;;;;;;9.37;61.01;101672.88;105689;1287;25378;-50
2023/03/23 02:38:29;;;;;;;3.60;3.20;;;;;;;9.35;61.11;101673.92;105647;1286;22660;-50
2023/03/23 02:40:56;;;;;;;4.40;4.00;;;;;;;9.34;61.26;101667.00;105640;1286;24382;-50
2023/03/23 02:43:25;;;;;;;3.80;3.30;;;;;;;9.32;61.31;101670.63;106372;1276;25356;-51
2023/03/23 02:45:52;;;;;;;3.60;2.40;;;;;;;9.32;61.47;101672.02;106359;1282;22764;-50
2023/03/23 02:48:21;;;;;;;1.90;1.70;;;;;;;9.32;61.53;101675.13;106422;1275;22783;-51
2023/03/23 02:50:50;;;;;;;1.50;1.40;;;;;;;9.31;61.61;101679.13;106356;1260;25409;-50
2023/03/23 02:53:24;;;;;;;1.40;1.30;;;;;;;9.28;61.90;101682.41;106329;1276;25466;-50
2023/03/23 02:55:53;;;;;;;1.30;1.20;;;;;;;9.27;62.08;101680.70;106424;1275;25370;-50
2023/03/23 02:58:21;;;;;;;1.40;1.30;;;;;;;9.29;62.28;101679.14;106375;1275;24350;-50
2023/03/23 03:00:50;;;;;;;1.00;0.90;;;;;;;9.30;62.35;101684.84;106386;1262;25322;-50
2023/03/23 03:03:20;;;;;;;0.90;0.90;;;;;;;9.31;62.36;101687.78;106401;1275;25667;-51
2023/03/23 03:05:50;;;;;;;4.50;2.10;;;;;;;9.33;62.62;101685.70;106360;1280;25336;-51
2023/03/23 03:08:32;;;;;;;5.90;2.10;;;;;;;9.34;62.49;101688.98;106354;1275;25492;-50
2023/03/23 03:11:05;;;;;;;1.60;1.10;;;;;;;9.35;62.56;101688.12;106252;1282;26488;-51
2023/03/23 03:13:45;;;;;;;2.00;1.80;;;;;;;9.37;62.58;101690.37;106743;1273;22576;-51
2023/03/23 03:16:16;;;;;;;1.60;1.50;;;;;;;9.39;62.73;101686.73;106614;1275;24209;-51
2023/03/23 03:18:47;;;;;;;1.30;1.20;;;;;;;9.38;62.75;101684.30;106945;1270;25347;-51
2023/03/23 03:21:14;;;;;;;1.60;1.50;;;;;;;9.40;62.74;101686.39;106815;1269;25317;-51
2023/03/23 03:23:43;;;;;;;1.80;1.30;;;;;;;9.41;62.73;101685.51;106817;1269;25354;-51
2023/03/23 03:26:17;;;;;;;2.70;1.40;;;;;;;9.41;62.69;101686.02;106906;1268;22644;-51
2023/03/23 03:28:48;;;;;;;1.40;1.30;;;;;;;9.39;62.64;101687.06;106776;1270;24234;-51
2023/03/23 03:31:26;;;;;;;1.60;1.50;;;;;;;9.38;62.63;101686.73;106642;1272;25364;-52
2023/03/23 03:33:54;;;;;;;2.40;1.60;;;;;;;9.37;62.53;101689.85;106723;1274;25370;-51
2023/03/23 03:36:34;;;;;;;1.70;1.60;;;;;;;9.38;62.51;101687.94;106633;1274;25346;-51
2023/03/23 03:39:07;;;;;;;1.70;1.50;;;;;;;9.38;62.43;101690.70;106650;1273;25350;-51
2023/03/23 03:41:35;;;;;;;1.50;1.40;;;;;;;9.37;62.45;101693.83;106778;1271;25268;-51
2023/03/23 03:44:09;;;;;;;2.20;1.90;;;;;;;9.35;62.45;101696.42;106767;1270;25419;-51
2023/03/23 03:46:36;;;;;;;2.80;1.60;;;;;;;9.35;62.61;101700.08;106667;1271;24196;-51
2023/03/23 03:49:06;;;;;;;1.70;1.60;;;;;;;9.35;62.64;101704.75;106588;1275;25383;-51
2023/03/23 03:51:35;;;;;;;2.20;1.90;;;;;;;9.34;62.75;101708.73;106010;1271;1003943;-51
2023/03/23 03:54:03;;;;;;;5.10;2.00;;;;;;;9.34;62.85;101711.14;106703;1258;23894;-52
2023/03/23 03:56:31;;;;;;;2.20;1.90;;;;;;;9.33;63.17;101713.23;106681;1272;25356;-51
2023/03/23 03:59:12;;;;;;;1.90;1.70;;;;;;;9.33;63.44;101715.48;106770;1271;24279;-51
2023/03/23 04:01:59;;;;;;;1.40;1.30;;;;;;;9.35;63.66;101720.34;106087;1269;1002895;-51
2023/03/23 04:04:26;;;;;;;1.50;1.40;;;;;;;9.35;63.73;101723.27;106838;1268;25361;-51
2023/03/23 04:06:54;;;;;;;1.40;1.30;;;;;;;9.33;63.90;101722.41;106840;1269;25373;-52
2023/03/23 04:09:21;;;;;;;1.70;1.60;;;;;;;9.33;64.19;101722.59;106866;1269;25508;-51
2023/03/23 04:11:49;;;;;;;1.40;1.30;;;;;;;9.33;64.35;101725.35;106757;1269;25409;-52
2023/03/23 04:14:35;;;;;;;3.10;1.40;;;;;;;9.36;64.46;101726.21;106863;1268;25542;-52
2023/03/23 04:17:04;;;;;;;1.20;1.10;;;;;;;9.35;64.60;101727.08;106144;1269;1003462;-53
2023/03/23 04:19:33;;;;;;;2.20;1.40;;;;;;;9.35;64.74;101731.41;106821;1273;25424;-52
2023/03/23 04:22:02;;;;;;;2.50;1.50;;;;;;;9.36;64.94;101731.93;106215;1268;1003444;-51
2023/03/23 04:24:33;;;;;;;3.10;1.80;;;;;;;9.39;65.17;101730.02;106807;1256;25325;-51
2023/03/23 04:27:01;;;;;;;1.90;1.70;;;;;;;9.43;65.38;101729.14;106810;1270;25387;-52
2023/03/23 04:29:30;;;;;;;2.70;1.50;;;;;;;9.47;65.31;101731.38;106939;1268;24376;-52
2023/03/23 04:32:28;;;;;;;1.40;1.30;;;;;;;9.52;65.55;101727.56;106376;1269;25416;-52
2023/03/23 04:34:59;;;;;;;13.40;1.80;;;;;;;9.57;65.56;101729.30;106778;1268;22554;-52
2023/03/23 04:37:34;;;;;;;3.90;1.40;;;;;;;9.61;65.54;101731.88;106823;1269;25351;-52
2023/03/23 04:40:22;;;;;;;2.30;1.40;;;;;;;9.64;65.52;101733.43;106845;1268;25367;-52
2023/03/23 04:43:05;;;;;;;2.00;1.90;;;;;;;9.69;65.40;101736.54;106053;1268;1003785;-52
2023/03/23 04:45:58;;;;;;;1.70;1.50;;;;;;;9.73;65.43;101739.83;106948;1268;25353;-52
2023/03/23 04:48:33;;;;;;;6.00;2.70;;;;;;;9.78;65.37;101747.77;106882;1268;25339;-52
2023/03/23 04:51:18;;;;;;;1.90;1.50;;;;;;;9.83;65.43;101751.92;106790;1268;25364;-53
2023/03/23 04:53:53;;;;;;;1.50;1.40;;;;;;;9.85;65.31;101752.44;106822;1269;25353;-52
2023/03/23 04:56:20;;;;;;;1.60;1.40;;;;;;;9.91;65.29;101756.58;106752;1273;24203;-52
2023/03/23 04:58:48;;;;;;;1.20;1.10;;;;;;;9.95;65.19;101756.04;106838;1268;26567;-52
2023/03/23 05:01:28;;;;;;;1.20;1.10;;;;;;;9.99;65.13;101757.75;106976;1268;25336;-52
2023/03/23 05:04:08;;;;;;;1.00;1.00;;;;;;;10.02;65.10;101764.85;106807;1270;25339;-52
2023/03/23 05:06:39;;;;;;;0.90;0.90;;;;;;;10.05;65.14;101765.53;106763;1269;25480;-53
2023/03/23 05:09:12;;;;;;;1.10;1.10;;;;;;;10.10;65.08;101763.30;106772;1268;24244;-51
2023/03/23 05:11:40;;;;;;;1.40;1.30;;;;;;;10.16;65.03;101765.02;106827;1268;26172;-51
2023/03/23 05:14:09;;;;;;;1.30;1.10;;;;;;;10.21;65.01;101762.39;106812;1273;25510;-51
2023/03/23 05:16:39;;;;;;;1.80;1.50;;;;;;;10.26;65.15;101763.05;106921;1268;25357;-51
2023/03/23 05:19:08;;;;;;;1.20;1.10;;;;;;;10.32;65.16;101764.77;106903;1268;25349;-52
2023/03/23 05:21:36;;;;;;;1.60;1.50;;;;;;;10.38;65.14;101766.48;106771;1269;25533;-50
2023/03/23 05:24:05;;;;;;;3.20;1.30;;;;;;;10.45;65.14;101768.17;106776;1269;22635;-51
2023/03/23 05:26:33;;;;;;;1.60;1.50;;;;;;;10.51;65.12;101763.98;106758;1268;24364;-51
2023/03/23 05:29:05;;;;;;;1.70;1.60;;;;;;;10.57;65.22;101769.33;106742;1268;25329;-52
2023/03/23 05:31:43;;;;;;;2.00;1.50;;;;;;;10.63;65.19;101769.29;106849;1268;25361;-52
2023/03/23 05:34:11;;;;;;;2.10;1.90;;;;;;;10.70;65.12;101772.70;106768;1269;25336;-50
2023/03/23 05:36:53;;;;;;;3.00;2.30;;;;;;;10.78;65.09;101773.88;106877;1268;24267;-50
2023/03/23 05:39:40;;;;;;;2.90;2.70;;;;;;;10.86;64.96;101774.17;106757;1269;25331;-52
2023/03/23 05:42:26;;;;;;;2.70;2.50;;;;;;;10.93;64.84;101772.75;106698;1269;25496;-52
2023/03/23 05:45:10;;;;;;;3.40;3.00;;;;;;;11.00;64.69;101771.13;106897;1273;25374;-50
2023/03/23 05:47:39;;;;;;;3.10;2.80;;;;;;;11.06;64.58;101772.83;106796;1271;25374;-51
2023/03/23 05:50:10;;;;;;;3.90;2.90;;;;;;;11.12;64.57;101773.80;106824;1270;22520;-51
2023/03/23 05:52:39;;;;;;;6.20;3.50;;;;;;;11.18;64.51;101773.75;106787;1268;24384;-51
2023/03/23 05:55:09;;;;;;;4.70;3.40;;;;;;;11.24;64.58;101776.66;106866;1268;25324;-50
2023/03/23 05:57:38;;;;;;;4.40;3.70;;;;;;;11.30;64.47;101775.92;106835;1269;25342;-50
2023/03/23 06:00:23;;;;;;;4.70;4.20;;;;;;;11.37;64.56;101776.90;106865;1256;25336;-49
2023/03/23 06:02:56;;;;;;;5.40;4.80;;;;;;;11.52;65.35;101784.06;106881;1268;25339;-49
2023/03/23 06:05:32;;;;;;;6.10;5.00;;;;;;;11.74;65.80;101781.61;106780;1268;22639;-49
2023/03/23 06:07:59;;;;;;;6.90;5.40;;;;;;;11.98;65.60;101784.48;106825;1269;24286;-50
2023/03/23 06:10:27;;;;;;;7.00;5.50;;;;;;;12.17;64.38;101789.48;106781;1272;22529;-50
2023/03/23 06:12:59;;;;;;;7.00;5.40;;;;;;;12.35;63.44;101793.61;106778;1269;24467;-50
2023/03/23 06:15:34;;;;;;;6.50;5.90;;;;;;;12.54;62.45;101790.77;106849;1269;25397;-49
2023/03/23 06:18:14;;;;;;;6.50;5.80;;;;;;;12.72;61.75;101794.69;106847;1268;25380;-49
2023/03/23 06:21:04;;;;;;;6.20;5.10;;;;;;;12.84;61.00;101795.55;106749;1270;25476;-50
2023/03/23 06:23:47;;;;;;;5.70;5.10;;;;;;;12.86;60.25;101799.52;106873;1268;25348;-50
2023/03/23 06:26:20;;;;;;;6.70;5.70;;;;;;;12.92;60.02;101803.97;106817;1268;25358;-50
2023/03/23 06:28:51;;;;;;;7.90;6.30;;;;;;;13.00;59.97;101801.23;106819;1269;22539;-50
2023/03/23 06:31:20;;;;;;;7.60;6.20;;;;;;;13.12;60.06;101798.81;106870;1268;25442;-50
2023/03/23 06:33:48;;;;;;;8.80;7.70;;;;;;;13.28;59.93;101801.35;106794;1269;22573;-49
2023/03/23 06:36:22;;;;;;;7.60;6.30;;;;;;;13.50;59.74;101800.63;106756;1269;26632;-49
2023/03/23 06:39:00;;;;;;;8.00;6.90;;;;;;;13.71;59.25;101801.65;106811;1268;25339;-50
2023/03/23 06:41:47;;;;;;;11.50;8.80;;;;;;;13.91;58.71;101797.96;106834;1269;25364;-49
2023/03/23 06:44:15;;;;;;;11.70;9.60;;;;;;;14.08;58.73;101797.80;106705;1274;25591;-49
2023/03/23 06:46:43;;;;;;;14.10;11.10;;;;;;;14.29;58.41;101800.36;106632;1269;25508;-50
2023/03/23 06:49:32;;;;;;;21.50;16.10;;;;;;;14.49;57.44;101792.80;106771;1268;25444;-49
2023/03/23 06:52:06;;;;;;;20.30;15.30;;;;;;;14.65;57.29;101795.77;106901;1269;25336;-49
2023/03/23 06:54:34;;;;;;;17.80;13.20;;;;;;;14.82;57.07;101794.52;106821;1268;25342;-49
2023/03/23 06:57:04;;;;;;;17.50;14.20;;;;;;;14.98;56.15;101792.38;106756;1268;25464;-48
2023/03/23 06:59:33;;;;;;;20.30;14.50;;;;;;;15.12;55.53;101793.45;106795;1272;25510;-49
2023/03/23 07:02:01;;;;;;;17.20;13.70;;;;;;;15.22;55.39;101792.50;106814;1271;25354;-49
2023/03/23 07:04:28;;;;;;;17.80;13.50;;;;;;;15.35;55.09;101793.75;106856;1255;26510;-50
2023/03/23 07:07:06;;;;;;;16.70;12.70;;;;;;;15.54;54.98;101794.69;106813;1269;25342;-50
2023/03/23 07:09:37;;;;;;;14.30;11.90;;;;;;;15.78;54.75;101796.85;106790;1271;24400;-50
2023/03/23 07:12:06;;;;;;;16.00;11.80;;;;;;;16.05;54.13;101794.35;106720;1269;25447;-49
2023/03/23 07:59:07;;;;;;;19.30;14.90;;;;;;;15.47;52.38;101823.90;106943;1268;25340;-49
2023/03/23 08:01:36;;;;;;;25.60;15.70;;;;;;;15.38;52.91;101825.15;106600;1269;24384;-50
2023/03/23 08:04:22;;;;;;;16.00;14.30;;;;;;;15.32;53.00;101826.87;106595;1274;25523;-49
2023/03/23 08:07:19;;;;;;;16.90;13.90;;;;;;;15.26;53.59;101824.05;106677;1272;26735;-50
2023/03/23 08:09:53;;;;;;;14.40;12.40;;;;;;;15.22;53.68;101825.73;106896;1269;25356;-50
2023/03/23 08:12:42;;;;;;;15.60;12.50;;;;;;;15.18;53.83;101822.67;106867;1268;26590;-50
2023/03/23 08:15:37;;;;;;;17.10;13.40;;;;;;;15.15;53.78;101825.17;106899;1268;25380;-50
2023/03/23 08:18:07;;;;;;;;;;;;;;;15.09;53.97;101827.42;106834;1269;25316;-50
2023/03/23 08:20:55;;;;;;;18.60;14.40;;;;;;;14.99;54.13;101824.70;106786;1271;25352;-50
2023/03/23 08:23:42;;;;;;;17.60;15.70;;;;;;;14.91;54.56;101826.10;106981;1268;25516;-49
2023/03/23 08:26:22;;;;;;;16.80;13.40;;;;;;;14.92;54.90;101830.63;106839;1268;24373;-50
2023/03/23 08:29:08;;;;;;;16.70;12.20;;;;;;;14.95;54.74;101828.63;106821;1269;25467;-50
2023/03/23 08:31:54;;;;;;;13.80;12.20;;;;;;;15.02;54.63;101827.41;106894;1269;25491;-50
2023/03/23 08:34:28;;;;;;;13.70;12.10;;;;;;;15.11;54.37;101829.67;106944;1268;25513;-50
2023/03/23 08:37:08;;;;;;;15.20;13.00;;;;;;;15.19;53.99;101828.94;106968;1268;25354;-50
2023/03/23 08:39:56;;;;;;;14.30;12.70;;;;;;;15.29;53.68;101832.36;106765;1269;25408;-50
2023/03/23 08:42:43;;;;;;;16.20;12.10;;;;;;;15.36;53.23;101831.84;106800;1272;25367;-50
2023/03/23 08:45:29;;;;;;;14.50;11.60;;;;;;;15.42;52.59;101831.71;106851;1268;25516;-50
2023/03/23 08:48:03;;;;;;;15.10;12.50;;;;;;;15.45;52.37;101832.70;106913;1269;25328;-50
2023/03/23 08:50:55;;;;;;;15.40;11.80;;;;;;;15.49;52.55;101831.21;106592;1268;25342;-50
2023/03/23 08:53:42;;;;;;;10.70;9.60;;;;;;;15.53;52.04;101832.68;106768;1268;25492;-50
2023/03/23 08:56:32;;;;;;;11.00;9.50;;;;;;;15.57;51.26;101828.55;106728;1268;25328;-49
2023/03/23 08:59:19;;;;;;;11.80;9.60;;;;;;;15.60;51.10;101830.23;106882;1268;25367;-50
2023/03/23 09:01:56;;;;;;;10.60;9.40;;;;;;;15.63;51.04;101830.33;106872;1268;22612;-49
2023/03/23 09:04:37;;;;;;;13.70;9.30;;;;;;;15.65;50.73;101832.88;106880;1268;25361;-49
2023/03/23 09:07:19;;;;;;;13.90;9.10;;;;;;;15.69;50.20;101830.18;106000;1276;1002945;-50
2023/03/23 09:09:48;;;;;;;12.90;9.50;;;;;;;15.72;50.10;101829.92;106834;1268;25342;-48
2023/03/23 09:12:16;;;;;;;9.80;8.70;;;;;;;15.73;49.68;101825.70;106951;1268;25334;-48
2023/03/23 09:14:44;;;;;;;12.20;10.40;;;;;;;15.73;49.63;101823.08;106913;1268;25533;-49
2023/03/23 09:17:13;;;;;;;11.80;10.30;;;;;;;15.72;49.74;101820.66;106962;1268;25367;-48
2023/03/23 09:19:41;;;;;;;16.40;11.60;;;;;;;15.70;49.93;101821.06;106672;1276;25380;-48
2023/03/23 09:22:08;;;;;;;13.80;11.20;;;;;;;15.68;50.26;101817.42;106882;1268;24265;-48
2023/03/23 09:24:38;;;;;;;17.40;12.90;;;;;;;15.68;50.39;101821.11;106915;1268;25318;-48
2023/03/23 09:27:06;;;;;;;14.80;11.70;;;;;;;15.68;50.57;101815.33;106892;1268;25367;-48
2023/03/23 09:29:35;;;;;;;16.60;12.80;;;;;;;15.68;50.95;101817.59;106903;1268;25489;-48
2023/03/23 09:32:02;;;;;;;17.90;13.70;;;;;;;15.70;51.05;101815.98;106913;1268;25400;-48
2023/03/23 09:34:29;;;;;;;16.90;12.40;;;;;;;15.73;51.38;101816.23;106911;1268;25301;-48
2023/03/23 09:36:59;;;;;;;13.80;10.60;;;;;;;15.75;51.35;101816.89;106913;1268;25342;-48
2023/03/23 09:39:27;;;;;;;17.60;12.90;;;;;;;15.77;51.13;101813.69;106886;1269;25367;-48
2023/03/23 09:42:29;;;;;;;18.30;14.10;;;;;;;15.81;51.51;101810.77;106806;1268;22602;-48
2023/03/23 09:44:58;;;;;;;15.40;12.40;;;;;;;15.91;51.80;101807.53;106963;1268;25500;-49
2023/03/23 09:47:36;;;;;;;18.40;12.60;;;;;;;15.97;51.32;101808.09;106677;1269;25474;-49
2023/03/23 09:50:12;;;;;;;13.30;10.80;;;;;;;16.02;50.86;101805.15;106858;1273;22529;-48
2023/03/23 09:52:51;;;;;;;15.50;10.80;;;;;;;16.04;50.90;101807.50;106979;1268;26625;-48
2023/03/23 09:55:19;;;;;;;14.20;11.60;;;;;;;16.08;51.02;101808.28;106964;1268;24263;-48
2023/03/23 09:57:51;;;;;;;18.00;13.80;;;;;;;16.12;51.14;101808.54;106993;1268;25339;-48
2023/03/23 10:00:41;;;;;;;19.90;13.30;;;;;;;16.17;51.47;101805.23;106998;1268;25499;-48
2023/03/23 10:03:21;;;;;;;17.70;13.80;;;;;;;16.25;51.55;101802.55;107021;1272;25467;-48
2023/03/23 10:05:49;;;;;;;16.40;13.40;;;;;;;16.30;51.43;101801.17;106985;1273;22630;-48
2023/03/23 10:08:19;;;;;;;17.80;15.10;;;;;;;16.37;51.56;101799.93;106925;1268;25390;-48
2023/03/23 10:11:14;;;;;;;18.10;12.90;;;;;;;16.44;51.81;101798.66;106987;1269;22588;-48
2023/03/23 10:13:54;;;;;;;19.30;15.10;;;;;;;16.52;51.54;101799.52;106914;1269;25364;-48
2023/03/23 10:16:24;;;;;;;16.20;13.10;;;;;;;16.57;51.93;101798.14;106739;1267;25389;-49
2023/03/23 10:19:17;;;;;;;16.10;14.30;;;;;;;16.62;52.01;101796.05;106986;1268;25342;-49
2023/03/23 10:21:49;;;;;;;12.70;11.30;;;;;;;16.66;52.23;101794.72;106967;1268;25535;-48
2023/03/23 10:24:33;;;;;;;11.10;9.80;;;;;;;16.70;52.27;101790.58;106832;1271;25407;-48
2023/03/23 10:27:21;;;;;;;9.00;8.10;;;;;;;16.72;51.99;101792.42;106965;1268;25399;-48
2023/03/23 10:40:29;;;;;;;8.50;6.20;;;;;;;16.80;51.58;101788.84;106266;1268;1003115;-49
2023/03/23 10:42:57;;;;;;;6.80;5.60;;;;;;;16.82;51.61;101787.20;106756;1269;23277;-49
2023/03/23 10:45:32;;;;;;;8.20;5.80;;;;;;;16.83;51.46;101788.94;106805;1272;25517;-49
2023/03/23 10:48:09;;;;;;;6.50;5.90;;;;;;;16.84;51.31;101785.39;106998;1271;25495;-49
2023/03/23 10:50:38;;;;;;;8.20;6.30;;;;;;;16.86;51.24;101782.88;106847;1268;22515;-50
2023/03/23 10:53:15;;;;;;;7.10;6.00;;;;;;;16.87;51.18;101782.66;106771;1269;22517;-49
2023/03/23 10:55:44;;;;;;;6.50;5.50;;;;;;;16.87;50.97;101775.14;107069;1268;22516;-50
2023/03/23 10:58:23;;;;;;;6.20;5.70;;;;;;;16.86;51.12;101772.89;107033;1269;25416;-49
2023/03/23 11:00:50;;;;;;;6.60;5.20;;;;;;;16.82;51.07;101769.66;106986;1269;22525;-50
2023/03/23 11:03:23;;;;;;;6.90;5.10;;;;;;;16.78;51.25;101771.20;106968;1268;22510;-49
2023/03/23 11:05:51;;;;;;;6.00;5.40;;;;;;;16.75;51.43;101768.52;106942;1269;25367;-50
2023/03/23 11:08:19;;;;;;;6.30;4.60;;;;;;;16.71;51.69;101768.45;106796;1269;22529;-49
2023/03/23 11:11:09;;;;;;;5.30;4.80;;;;;;;16.70;51.76;101762.52;106964;1268;26688;-49
2023/03/23 11:13:45;;;;;;;5.30;4.70;;;;;;;16.71;51.73;101761.42;106914;1269;22515;-49
2023/03/23 11:16:27;;;;;;;6.20;5.30;;;;;;;16.73;51.52;101765.22;106829;1269;22519;-49
2023/03/23 11:18:54;;;;;;;6.30;5.70;;;;;;;16.74;51.32;101760.46;107048;1270;22561;-49
2023/03/23 11:21:28;;;;;;;5.60;4.80;;;;;;;16.74;51.49;101758.18;106924;1268;26514;-49
2023/03/23 11:23:59;;;;;;;5.60;5.00;;;;;;;16.75;51.38;101756.77;106528;1269;25350;-49
2023/03/23 11:26:28;;;;;;;5.30;4.80;;;;;;;16.74;51.20;101756.62;106909;1253;25339;-49
2023/03/23 11:29:05;;;;;;;5.50;5.00;;;;;;;16.71;51.19;101755.30;106969;1268;25287;-50
2023/03/23 11:31:37;;;;;;;8.00;5.60;;;;;;;16.70;51.12;101758.67;107023;1268;24211;-50
2023/03/23 11:34:10;;;;;;;5.40;4.90;;;;;;;16.66;50.97;101754.08;106621;1269;25497;-50
2023/03/23 11:36:41;;;;;;;7.30;5.90;;;;;;;16.60;51.07;101754.44;106820;1269;22553;-49
2023/03/23 11:39:53;;;;;;;6.20;5.60;;;;;;;16.59;50.85;101752.55;106958;1269;22555;-50
2023/03/23 11:42:29;;;;;;;6.60;5.70;;;;;;;16.58;51.02;101749.95;106538;1275;25363;-49
2023/03/23 11:45:25;;;;;;;6.30;5.70;;;;;;;16.58;51.01;101746.45;106594;1276;25335;-49
2023/03/23 11:48:01;;;;;;;9.00;6.30;;;;;;;16.57;50.80;101745.94;106409;1276;25485;-49
2023/03/23 11:51:09;;;;;;;8.00;7.00;;;;;;;16.56;50.76;101744.23;106482;1278;25319;-49
2023/03/23 11:53:45;;;;;;;8.00;5.90;;;;;;;16.53;50.82;101735.38;106625;1275;22521;-49
2023/03/23 11:56:27;;;;;;;10.70;6.60;;;;;;;16.51;50.82;101735.08;106546;1275;25370;-49
2023/03/23 11:58:55;;;;;;;10.80;7.30;;;;;;;16.50;50.57;101731.98;106572;1275;24276;-49
2023/03/23 12:01:44;;;;;;;7.90;6.80;;;;;;;16.48;50.50;101735.15;106385;1274;24196;-49
2023/03/23 12:04:26;;;;;;;7.70;6.70;;;;;;;16.46;50.34;101729.45;106691;1275;25329;-49
2023/03/23 12:07:13;;;;;;;9.10;7.10;;;;;;;16.44;50.47;101728.45;106638;1276;22527;-49
2023/03/23 12:10:08;;;;;;;7.80;6.60;;;;;;;16.44;50.49;101730.73;106572;1273;22802;-49
2023/03/23 12:12:51;;;;;;;8.10;6.50;;;;;;;16.45;50.50;101731.04;106665;1276;25312;-49
2023/03/23 12:15:21;;;;;;;8.80;7.10;;;;;;;16.48;50.45;101727.09;106372;1280;25360;-49
2023/03/23 12:18:10;;;;;;;7.90;6.60;;;;;;;16.51;50.43;101726.52;106656;1277;25345;-49
2023/03/23 12:20:56;;;;;;;7.60;6.80;;;;;;;16.52;50.35;101725.95;106909;1268;24395;-49
2023/03/23 12:24:19;;;;;;;8.50;6.70;;;;;;;16.53;50.42;101722.24;107037;1268;25370;-49
2023/03/23 12:26:58;;;;;;;7.00;6.30;;;;;;;16.54;50.48;101717.66;106319;1276;25382;-49
2023/03/23 12:29:45;;;;;;;7.90;6.80;;;;;;;16.54;50.56;101718.54;106401;1276;22587;-49
2023/03/23 12:32:34;;;;;;;6.10;5.50;;;;;;;16.52;50.76;101712.63;106370;1276;22740;-49
2023/03/23 12:35:09;;;;;;;8.30;5.90;;;;;;;16.51;50.96;101711.45;106305;1276;25340;-49
2023/03/23 12:37:53;;;;;;;6.40;5.80;;;;;;;16.51;51.08;101713.36;106385;1276;25380;-49
2023/03/23 12:40:48;;;;;;;6.40;5.00;;;;;;;16.50;51.23;101710.09;106279;1279;25407;-49
2023/03/23 12:43:58;;;;;;;7.80;4.70;;;;;;;16.51;51.39;101706.72;105911;1283;22529;-49
2023/03/23 12:46:37;;;;;;;4.60;4.00;;;;;;;16.52;51.44;101705.81;105870;1282;22788;-49
2023/03/23 12:49:13;;;;;;;4.80;3.90;;;;;;;16.53;51.51;101703.84;105928;1283;25440;-50